Hlavní strana
METAR-TAF:

METAR-TAF

Letiště :

St. Gallen, Švýcarsko

zeměpisná šířka: 47-29-06N, zeměpisná délka: 009-33-43E, výška: 398 m

Aktuální stav počasí

Zpráva byla vytvořena před 15 minutami, v 15:50 UTC
Západní vítr 7 kt
Teplota 9°C
Vlhkost vzduchu 49%
Tlak 1031 hPa
Viditelnost 10 km a více
Žádná oblačnost pod 1500 m, nevyskytují se cumulonimby.

METAR: LSZR 201550Z 28007KT CAVOK 09/M01 Q1031 NOSIG RMK L

Čas: 17:05 (16:05 UTC)

Předpověď počasí

Zpráva byla vytvořena před 1 hodinou a 40 minutami, v 14:25 UTC
Předpověď platná od 20 v 15 UTC do 20 v 24 UTC
Západní vítr 6 kt
Viditelnost 10 km a více
Žádná oblačnost pod 1500 m, nevyskytují se cumulonimby.

TAF: LSZR 201425Z 2015/2024 27006KT CAVOK

Stav a předpovědi počasí z více než 4 000 letišť (zprávy METAR a TAF).

Červené a žluté tečky na mapě představují dostupné meteorologické stanice.

Když kurzor umístíte na tečku, zobrazí se název stanice.

Pak kliknutím zobrazíte stav a předpověď počasí.

Chcete-li změnit mapu, kliknutím na zelené tlačítko se znaménkem +mapu přiblížíte, kliknutím na zelené tlačítko se znaménkem – mapu oddálíte a kliknutím na zelené šipky přejdete na sousední mapy.


METAR-TAF: